createdAt,value
2022-09-03T00:01:11.041Z,65.80
2022-09-03T00:03:44.512Z,65.20
2022-09-03T00:06:18.180Z,65.20
2022-09-03T00:08:53.030Z,65.60
2022-09-03T00:11:27.276Z,65.70
2022-09-03T00:14:06.215Z,65.00
2022-09-03T00:16:51.378Z,65.40
2022-09-03T00:19:23.653Z,65.70
2022-09-03T00:22:08.139Z,66.10
2022-09-03T00:24:39.284Z,66.00
2022-09-03T00:27:12.984Z,66.20
2022-09-03T00:30:10.014Z,65.80
2022-09-03T00:32:58.480Z,66.10
2022-09-03T00:35:36.761Z,66.80
2022-09-03T00:38:03.844Z,66.40
2022-09-03T00:41:01.567Z,67.20
2022-09-03T00:43:53.610Z,67.30
2022-09-03T00:46:49.471Z,67.50
2022-09-03T00:49:27.593Z,67.40
2022-09-03T00:52:13.764Z,67.50
2022-09-03T00:54:50.864Z,68.20
2022-09-03T00:57:42.078Z,67.90
2022-09-03T01:00:19.610Z,68.30
2022-09-03T01:03:43.860Z,68.00
2022-09-03T01:06:20.160Z,68.20
2022-09-03T01:08:49.792Z,68.20
2022-09-03T01:11:30.270Z,68.20
2022-09-03T01:14:08.057Z,68.10
2022-09-03T01:16:40.916Z,68.30
2022-09-03T01:19:38.914Z,67.60
2022-09-03T01:22:20.106Z,67.80
2022-09-03T01:25:17.762Z,67.20
2022-09-03T01:28:20.459Z,68.00
2022-09-03T01:31:14.981Z,67.70
2022-09-03T01:33:57.370Z,67.40
2022-09-03T01:36:55.669Z,66.70
2022-09-03T01:39:45.749Z,67.00
2022-09-03T01:42:20.424Z,66.70
2022-09-03T01:45:16.519Z,66.60
2022-09-03T01:47:54.688Z,66.10
2022-09-03T01:50:43.783Z,65.90
2022-09-03T01:53:34.911Z,66.10
2022-09-03T01:56:35.837Z,66.00
2022-09-03T01:59:09.767Z,65.80
2022-09-03T02:02:02.710Z,65.70
2022-09-03T02:04:31.778Z,65.20
2022-09-03T02:07:00.659Z,66.10
2022-09-03T02:09:30.841Z,66.90
2022-09-03T02:12:14.733Z,65.60
2022-09-03T02:14:41.672Z,66.40
2022-09-03T02:17:09.166Z,66.20
2022-09-03T02:19:37.760Z,66.10
2022-09-03T02:22:05.268Z,66.00
2022-09-03T02:24:32.964Z,65.80
2022-09-03T02:27:00.961Z,66.10
2022-09-03T02:29:27.886Z,66.20
2022-09-03T02:31:54.960Z,66.10
2022-09-03T02:34:21.773Z,66.20
2022-09-03T02:36:48.675Z,66.40
2022-09-03T02:39:16.760Z,66.50
2022-09-03T02:41:44.568Z,66.00
2022-09-03T02:44:14.582Z,66.10
2022-09-03T02:46:46.560Z,67.70
2022-09-03T02:49:13.735Z,67.00
2022-09-03T02:51:42.977Z,67.30
2022-09-03T02:54:11.895Z,67.00
2022-09-03T02:56:38.957Z,66.70
2022-09-03T02:59:07.852Z,67.00
2022-09-03T03:01:35.564Z,67.40
2022-09-03T03:04:02.713Z,68.00
2022-09-03T03:06:29.624Z,68.30
2022-09-03T03:08:57.746Z,68.80
2022-09-03T03:11:27.724Z,69.90
2022-09-03T03:13:54.732Z,70.50
2022-09-03T03:16:22.355Z,70.60
2022-09-03T03:18:49.227Z,71.10
2022-09-03T03:21:17.780Z,71.60
2022-09-03T03:23:45.004Z,71.60
2022-09-03T03:26:14.870Z,71.10
2022-09-03T03:28:42.592Z,71.00
2022-09-03T03:31:14.867Z,71.40
2022-09-03T03:33:42.088Z,71.20
2022-09-03T03:36:11.959Z,71.20
2022-09-03T03:38:40.465Z,71.00
2022-09-03T03:41:24.799Z,71.40
2022-09-03T03:43:56.423Z,70.80
2022-09-03T03:46:24.790Z,71.60
2022-09-03T03:48:52.760Z,71.70
2022-09-03T03:51:21.198Z,71.70
2022-09-03T03:53:48.422Z,72.10
2022-09-03T03:56:16.870Z,72.10
2022-09-03T03:58:44.341Z,72.30
2022-09-03T04:01:14.905Z,72.40
2022-09-03T04:03:43.333Z,72.10
2022-09-03T04:06:11.989Z,72.00
2022-09-03T04:08:41.325Z,72.50
2022-09-03T04:11:10.507Z,72.60
2022-09-03T04:13:40.842Z,72.40
2022-09-03T04:16:13.661Z,72.50
2022-09-03T04:18:41.481Z,72.50
2022-09-03T04:21:11.372Z,72.80
2022-09-03T04:23:40.891Z,72.90
2022-09-03T04:26:08.429Z,73.60
2022-09-03T04:28:35.748Z,73.80
2022-09-03T04:31:08.429Z,73.70
2022-09-03T04:33:38.198Z,73.60
2022-09-03T04:36:20.330Z,74.00
2022-09-03T04:38:49.872Z,74.00
2022-09-03T04:41:24.980Z,74.30
2022-09-03T04:43:57.341Z,74.60
2022-09-03T04:46:28.913Z,74.60
2022-09-03T04:48:57.340Z,74.50
2022-09-03T04:51:30.230Z,74.50
2022-09-03T04:54:01.207Z,73.90
2022-09-03T04:56:30.973Z,74.30
2022-09-03T04:59:00.224Z,74.30
2022-09-03T05:01:30.781Z,74.40
2022-09-03T05:03:59.131Z,75.10
2022-09-03T05:06:30.959Z,75.50
2022-09-03T05:08:58.712Z,75.50
2022-09-03T05:11:27.148Z,75.00
2022-09-03T05:13:56.485Z,75.30
2022-09-03T05:16:25.386Z,75.20
2022-09-03T05:18:54.026Z,75.00
2022-09-03T05:21:22.794Z,74.90
2022-09-03T05:23:51.434Z,75.00
2022-09-03T05:26:22.233Z,74.10
2022-09-03T05:28:52.973Z,74.30
2022-09-03T05:31:21.814Z,74.70
2022-09-03T05:33:53.751Z,74.00
2022-09-03T05:36:23.378Z,73.20
2022-09-03T05:38:51.020Z,72.60
2022-09-03T05:41:19.380Z,72.30
2022-09-03T05:43:55.367Z,72.30
2022-09-03T05:46:32.166Z,72.00
2022-09-03T05:49:06.817Z,72.60
2022-09-03T05:51:36.002Z,73.20
2022-09-03T05:54:03.949Z,73.80
2022-09-03T05:56:32.492Z,74.20
2022-09-03T05:59:05.719Z,73.30
2022-09-03T06:01:38.197Z,73.20
2022-09-03T06:04:11.046Z,70.90
2022-09-03T06:06:40.337Z,70.70
2022-09-03T06:09:13.649Z,70.10
2022-09-03T06:11:42.702Z,70.20
2022-09-03T06:14:12.707Z,69.20
2022-09-03T06:16:45.319Z,68.50
2022-09-03T06:19:13.993Z,67.10
2022-09-03T06:21:45.159Z,66.20
2022-09-03T06:24:20.534Z,65.40
2022-09-03T06:26:49.283Z,64.60
2022-09-03T06:29:18.477Z,64.20
2022-09-03T06:31:45.453Z,63.70
2022-09-03T06:34:12.607Z,62.70
2022-09-03T06:36:41.222Z,61.40
2022-09-03T06:39:09.149Z,60.30
2022-09-03T06:41:36.204Z,59.90
2022-09-03T06:44:11.716Z,58.90
2022-09-03T06:46:42.565Z,57.90
2022-09-03T06:49:10.662Z,57.90
2022-09-03T06:51:39.177Z,57.20
2022-09-03T06:54:08.351Z,55.90
2022-09-03T06:56:40.924Z,55.50
2022-09-03T06:59:17.428Z,55.70
2022-09-03T07:01:46.348Z,54.00
2022-09-03T07:04:16.881Z,53.00
2022-09-03T07:06:46.519Z,52.90
2022-09-03T07:09:15.611Z,51.70
2022-09-03T07:11:47.964Z,51.40
2022-09-03T07:14:19.689Z,50.80
2022-09-03T07:16:48.127Z,50.70
2022-09-03T07:19:16.096Z,50.20
2022-09-03T07:21:48.852Z,50.40
2022-09-03T07:24:16.964Z,50.30
2022-09-03T07:26:48.792Z,50.20
2022-09-03T07:29:19.962Z,50.10
2022-09-03T07:31:47.265Z,50.90
2022-09-03T07:34:16.464Z,49.60
2022-09-03T07:36:50.879Z,49.30
2022-09-03T07:39:18.397Z,48.60
2022-09-03T07:41:46.703Z,48.20
2022-09-03T07:44:16.322Z,47.30
2022-09-03T07:46:46.192Z,47.10
2022-09-03T07:49:13.632Z,46.50
2022-09-03T07:51:40.784Z,45.80
2022-09-03T07:54:10.997Z,45.60
2022-09-03T07:56:42.018Z,45.30
2022-09-03T07:59:09.517Z,44.50
2022-09-03T08:01:38.478Z,43.50
2022-09-03T08:04:09.784Z,44.20
2022-09-03T08:06:38.458Z,43.80
2022-09-03T08:09:08.059Z,43.70
2022-09-03T08:11:38.408Z,43.60
2022-09-03T08:14:10.599Z,43.70
2022-09-03T08:16:40.388Z,43.10
2022-09-03T08:19:07.597Z,42.70
2022-09-03T08:21:35.136Z,42.90
2022-09-03T08:24:05.885Z,42.20
2022-09-03T08:26:38.758Z,41.50
2022-09-03T08:29:06.323Z,40.60
2022-09-03T08:31:34.337Z,41.10
2022-09-03T08:34:07.192Z,39.50
2022-09-03T08:36:39.043Z,39.50
2022-09-03T08:39:11.095Z,39.30
2022-09-03T08:41:53.795Z,39.30
2022-09-03T08:44:40.045Z,39.20
2022-09-03T08:47:12.503Z,38.60
2022-09-03T08:49:48.591Z,38.20
2022-09-03T08:52:48.982Z,38.20
2022-09-03T08:55:22.167Z,38.10
2022-09-03T08:57:56.997Z,38.40
2022-09-03T09:00:24.111Z,38.30
2022-09-03T09:03:04.741Z,37.60
2022-09-03T09:05:51.768Z,37.10
2022-09-03T09:08:32.793Z,36.80
2022-09-03T09:11:31.872Z,36.40
2022-09-03T09:14:07.651Z,37.00
2022-09-03T09:17:04.118Z,36.30
2022-09-03T09:19:52.339Z,37.10
2022-09-03T09:22:32.991Z,35.60
2022-09-03T09:25:05.461Z,34.90
2022-09-03T09:27:33.356Z,34.30
2022-09-03T09:30:04.573Z,34.90
2022-09-03T09:32:39.238Z,34.50
2022-09-03T09:35:10.470Z,34.10
2022-09-03T09:37:57.780Z,34.20
2022-09-03T09:40:33.370Z,34.40
2022-09-03T09:43:19.245Z,34.00
2022-09-03T09:45:51.464Z,34.30
2022-09-03T09:48:32.716Z,33.80
2022-09-03T09:51:14.248Z,33.20
2022-09-03T09:53:41.337Z,33.00
2022-09-03T09:56:08.910Z,33.40
2022-09-03T09:58:36.339Z,32.40
2022-09-03T10:01:15.284Z,32.30
2022-09-03T10:03:55.208Z,31.80
2022-09-03T10:06:49.429Z,31.40
2022-09-03T10:09:21.330Z,31.30
2022-09-03T10:12:06.328Z,31.80
2022-09-03T10:14:57.405Z,31.80
2022-09-03T10:17:36.910Z,31.30
2022-09-03T10:20:31.241Z,32.40
2022-09-03T10:23:14.775Z,30.80
2022-09-03T10:26:07.522Z,30.10
2022-09-03T10:28:41.678Z,30.00
2022-09-03T10:31:37.042Z,30.00
2022-09-03T10:34:35.158Z,30.30
2022-09-03T10:37:26.098Z,30.90
2022-09-03T10:40:32.009Z,30.40
2022-09-03T10:43:32.051Z,30.10
2022-09-03T10:46:37.929Z,30.50
2022-09-03T10:49:40.322Z,31.00
2022-09-03T10:52:33.849Z,29.90
2022-09-03T10:55:12.477Z,29.60
2022-09-03T10:57:56.879Z,30.00
2022-09-03T11:00:24.352Z,30.40
2022-09-03T11:03:07.408Z,30.40
2022-09-03T11:05:45.404Z,30.30
2022-09-03T11:08:28.492Z,30.60
2022-09-03T11:11:00.355Z,30.50
2022-09-03T11:13:42.721Z,31.20
2022-09-03T11:16:18.318Z,31.70
2022-09-03T11:18:53.324Z,31.20
2022-09-03T11:21:30.160Z,31.70
2022-09-03T11:24:27.056Z,32.50
2022-09-03T11:27:26.277Z,32.40
2022-09-03T11:29:56.423Z,32.50
2022-09-03T11:32:33.234Z,32.20
2022-09-03T11:35:00.332Z,31.30
2022-09-03T11:37:30.491Z,32.00
2022-09-03T11:40:16.939Z,33.50
2022-09-03T11:42:45.409Z,34.80
2022-09-03T11:45:30.275Z,33.50
2022-09-03T11:47:57.497Z,32.90
2022-09-03T11:50:32.820Z,31.90
2022-09-03T11:53:15.123Z,30.30
2022-09-03T11:55:56.031Z,31.10
2022-09-03T11:58:43.586Z,30.00
2022-09-03T12:01:16.319Z,31.20
2022-09-03T12:04:07.714Z,30.70
2022-09-03T12:07:11.807Z,31.80
2022-09-03T12:09:57.461Z,30.10
2022-09-03T12:12:55.146Z,30.60
